Time;durP1;ratioP1;P1;durP2;ratioP2;P2;SDS_P1;SDS_P2;PMS_P1;PMS_P2;Temp;Humidity;BMP_temperature;BMP_pressure;BME280_temperature;BME280_humidity;BME280_pressure;Samples;Min_cycle;Max_cycle;Signal;HPM_P1;HPM_P2
2023/08/01 00:00:26;;;;;;;5.68;3.38;;;18.40;96.20;;;;;;5110564;28;20024;-52
2023/08/01 00:02:52;;;;;;;6.03;3.70;;;18.40;97.00;;;;;;5090752;28;20089;-52
2023/08/01 00:05:17;;;;;;;4.15;2.92;;;18.40;97.40;;;;;;5111885;28;20081;-53
2023/08/01 00:07:43;;;;;;;4.18;2.80;;;18.40;98.10;;;;;;5090556;28;20404;-52
2023/08/01 00:10:09;;;;;;;5.40;3.38;;;18.30;98.80;;;;;;5111455;28;20056;-52
2023/08/01 00:12:34;;;;;;;5.80;2.95;;;18.30;99.90;;;;;;5090640;28;20438;-55
2023/08/01 00:15:00;;;;;;;5.65;3.17;;;18.30;99.90;;;;;;5111545;28;20395;-51
2023/08/01 00:17:25;;;;;;;3.72;3.08;;;18.20;99.90;;;;;;5090943;28;20371;-51
2023/08/01 00:19:51;;;;;;;5.38;3.85;;;18.20;99.90;;;;;;5111334;28;20024;-54
2023/08/01 00:22:16;;;;;;;4.18;3.05;;;18.10;99.90;;;;;;5100980;28;20444;-53
2023/08/01 00:24:42;;;;;;;4.30;3.28;;;18.10;99.90;;;;;;5092145;28;20024;-54
2023/08/01 00:27:09;;;;;;;8.07;3.65;;;18.10;99.90;;;;;;5109222;28;20384;-55
2023/08/01 00:29:35;;;;;;;4.82;3.22;;;18.00;99.90;;;;;;5094016;28;20032;-54
2023/08/01 00:32:00;;;;;;;8.45;3.30;;;18.00;99.90;;;;;;5110198;28;20031;-50
2023/08/01 00:34:26;;;;;;;6.53;3.60;;;17.90;99.90;;;;;;5096602;28;20390;-52
2023/08/01 00:36:51;;;;;;;6.97;3.20;;;17.90;99.90;;;;;;5096996;28;20605;-51
2023/08/01 00:39:17;;;;;;;3.88;2.60;;;17.80;99.90;;;;;;5111972;28;20079;-62
2023/08/01 00:41:42;;;;;;;5.85;3.80;;;17.80;99.90;;;;;;5095814;28;20028;-62
2023/08/01 00:44:08;;;;;;;4.55;3.53;;;17.70;99.90;;;;;;5111772;28;20505;-54
2023/08/01 00:46:33;;;;;;;6.88;3.70;;;17.70;99.90;;;;;;5094443;28;20023;-53
2023/08/01 00:49:00;;;;;;;5.97;3.13;;;17.60;99.90;;;;;;5111899;28;20249;-54
2023/08/01 00:51:26;;;;;;;6.57;3.65;;;17.60;99.90;;;;;;5093224;28;20310;-54
2023/08/01 00:53:52;;;;;;;8.40;3.95;;;17.50;99.90;;;;;;5111423;28;20035;-55
2023/08/01 00:56:18;;;;;;;3.53;2.33;;;17.50;99.90;;;;;;5092366;27;20024;-55
2023/08/01 00:58:44;;;;;;;6.75;3.17;;;17.50;99.90;;;;;;5111612;28;20045;-52
2023/08/01 01:01:09;;;;;;;4.60;2.50;;;17.50;99.90;;;;;;5090480;28;20028;-50
2023/08/01 01:03:36;;;;;;;11.45;3.20;;;17.50;99.90;;;;;;5111565;28;20063;-54
2023/08/01 01:06:25;;;;;;;4.55;3.10;;;17.40;99.90;;;;;;5090501;28;20048;-50
2023/08/01 01:08:51;;;;;;;6.40;3.40;;;17.40;99.90;;;;;;5090654;28;20084;-50
2023/08/01 01:11:16;;;;;;;5.88;2.88;;;17.40;99.90;;;;;;5107253;28;20032;-49
2023/08/01 01:13:42;;;;;;;4.63;3.05;;;17.30;99.90;;;;;;5111324;28;20030;-53
2023/08/01 01:16:07;;;;;;;4.03;2.63;;;17.30;99.90;;;;;;5090009;28;20531;-54
2023/08/01 01:18:33;;;;;;;6.88;3.05;;;17.20;99.90;;;;;;5111053;28;20387;-52
2023/08/01 01:20:58;;;;;;;5.35;3.72;;;17.20;99.90;;;;;;5091182;28;20035;-54
2023/08/01 01:23:26;;;;;;;6.40;2.67;;;17.20;99.90;;;;;;5108966;28;20042;-52
2023/08/01 01:25:54;;;;;;;5.90;2.75;;;17.10;99.90;;;;;;5090564;28;20064;-54
2023/08/01 01:28:20;;;;;;;4.63;3.10;;;17.10;99.90;;;;;;5089220;28;20028;-52
2023/08/01 01:30:47;;;;;;;3.75;2.50;;;17.10;99.90;;;;;;5109902;28;20302;-52
2023/08/01 01:33:14;;;;;;;3.15;2.45;;;17.10;99.90;;;;;;5088959;28;20052;-54
2023/08/01 01:35:40;;;;;;;6.32;2.92;;;17.10;99.90;;;;;;5105253;28;20024;-53
2023/08/01 01:38:06;;;;;;;4.28;2.72;;;17.10;99.90;;;;;;5088944;28;20031;-51
2023/08/01 01:40:32;;;;;;;5.63;2.88;;;17.10;99.90;;;;;;5109846;28;20377;-55
2023/08/01 01:42:59;;;;;;;3.70;2.80;;;17.10;99.90;;;;;;5088685;28;20043;-55
2023/08/01 01:45:25;;;;;;;5.88;3.25;;;17.10;99.90;;;;;;5110000;28;20047;-55
2023/08/01 01:47:51;;;;;;;4.82;2.95;;;17.10;99.90;;;;;;5088578;28;20484;-54
2023/08/01 01:50:17;;;;;;;4.47;3.00;;;17.10;99.90;;;;;;5109707;28;20028;-54
2023/08/01 01:52:43;;;;;;;3.70;2.65;;;17.10;99.90;;;;;;5088620;28;20024;-55
2023/08/01 01:55:09;;;;;;;5.50;3.47;;;17.10;99.90;;;;;;5108007;28;20546;-54
2023/08/01 01:57:36;;;;;;;5.30;2.85;;;17.10;99.90;;;;;;5088900;28;20032;-55
2023/08/01 02:00:02;;;;;;;6.75;3.00;;;17.10;99.90;;;;;;5109821;28;20026;-53
2023/08/01 02:02:27;;;;;;;5.55;3.40;;;17.00;99.90;;;;;;5088511;28;20093;-51
2023/08/01 02:04:53;;;;;;;6.60;3.45;;;17.10;99.90;;;;;;5109456;28;20031;-56
2023/08/01 02:07:18;;;;;;;5.38;2.83;;;17.10;99.90;;;;;;5099224;28;20020;-51
2023/08/01 02:09:44;;;;;;;7.95;3.03;;;17.00;99.90;;;;;;5090338;28;20024;-55
2023/08/01 02:12:09;;;;;;;4.38;2.70;;;17.00;99.90;;;;;;5107128;28;20028;-55
2023/08/01 02:14:36;;;;;;;6.20;3.70;;;17.00;99.90;;;;;;5089716;28;20052;-55
2023/08/01 02:17:02;;;;;;;5.88;3.42;;;17.00;99.90;;;;;;5107532;28;20051;-51
2023/08/01 02:19:27;;;;;;;5.35;3.78;;;17.00;99.90;;;;;;5089900;28;20059;-52
2023/08/01 02:21:53;;;;;;;5.70;3.20;;;17.00;99.90;;;;;;5107052;28;20045;-55
2023/08/01 02:24:19;;;;;;;5.22;3.85;;;16.90;99.90;;;;;;5109806;28;20042;-55
2023/08/01 02:26:44;;;;;;;6.90;3.58;;;16.90;99.90;;;;;;5094101;28;20102;-51
2023/08/01 02:29:10;;;;;;;3.95;3.30;;;16.90;99.90;;;;;;5109439;28;20041;-54
2023/08/01 02:31:35;;;;;;;3.75;3.15;;;16.90;99.90;;;;;;5092618;28;20047;-54
2023/08/01 02:34:01;;;;;;;6.10;3.47;;;17.00;99.90;;;;;;5099474;28;20118;-60
2023/08/01 02:36:26;;;;;;;4.60;3.53;;;17.00;99.90;;;;;;5090637;28;20032;-60
2023/08/01 02:38:52;;;;;;;5.28;3.47;;;17.00;99.90;;;;;;5109572;28;20512;-60
2023/08/01 02:41:17;;;;;;;3.97;3.05;;;17.00;99.90;;;;;;5089974;28;20518;-60
2023/08/01 02:43:43;;;;;;;5.25;4.20;;;17.00;99.90;;;;;;5109494;28;20095;-63
2023/08/01 02:46:08;;;;;;;6.68;3.85;;;17.00;99.90;;;;;;5088384;28;20036;-63
2023/08/01 02:48:35;;;;;;;5.03;3.60;;;17.00;99.90;;;;;;5109395;28;20031;-63
2023/08/01 02:51:01;;;;;;;6.55;3.63;;;17.10;99.90;;;;;;5089272;28;20127;-63
2023/08/01 02:53:27;;;;;;;8.77;4.68;;;17.00;99.90;;;;;;5068767;28;20813;-63
2023/08/01 02:55:52;;;;;;;7.25;4.15;;;17.00;99.90;;;;;;5107601;28;20114;-63
2023/08/01 02:58:18;;;;;;;8.02;3.97;;;17.00;99.90;;;;;;5087745;28;20058;-63
2023/08/01 03:00:43;;;;;;;8.30;4.05;;;17.00;99.90;;;;;;5108490;28;20164;-63
2023/08/01 03:03:09;;;;;;;6.90;4.05;;;17.10;99.90;;;;;;5087225;28;20028;-63
2023/08/01 03:05:37;;;;;;;7.35;3.45;;;17.10;99.90;;;;;;5106933;28;20032;-63
2023/08/01 03:08:04;;;;;;;6.18;4.10;;;17.00;99.90;;;;;;5087371;28;20024;-64
2023/08/01 03:10:29;;;;;;;6.85;4.20;;;17.00;99.90;;;;;;5108143;28;20031;-64
2023/08/01 03:12:55;;;;;;;6.30;4.32;;;17.10;99.90;;;;;;5087474;28;20097;-63
2023/08/01 03:15:20;;;;;;;5.40;3.63;;;17.00;99.90;;;;;;5108301;28;20027;-64
2023/08/01 03:17:46;;;;;;;10.05;4.78;;;17.10;99.90;;;;;;5087381;28;20688;-63
2023/08/01 03:20:12;;;;;;;8.93;4.68;;;17.00;99.90;;;;;;5106806;28;20019;-64
2023/08/01 03:22:39;;;;;;;5.93;4.15;;;17.00;99.90;;;;;;5087324;28;20081;-63
2023/08/01 03:25:07;;;;;;;7.72;4.45;;;17.00;99.90;;;;;;5108648;28;20373;-63
2023/08/01 03:27:36;;;;;;;5.55;3.65;;;17.10;99.90;;;;;;5091072;28;20024;-64
2023/08/01 03:30:02;;;;;;;5.88;4.03;;;17.10;99.90;;;;;;5106405;28;20043;-64
2023/08/01 03:32:28;;;;;;;7.10;3.78;;;17.10;99.90;;;;;;5102616;28;20032;-63
2023/08/01 03:34:53;;;;;;;5.03;3.58;;;17.00;99.90;;;;;;5089891;28;20028;-63
2023/08/01 03:37:19;;;;;;;8.90;3.90;;;17.00;99.90;;;;;;5110332;28;20125;-63
2023/08/01 03:39:45;;;;;;;6.53;3.90;;;17.10;99.90;;;;;;5093005;28;20069;-63
2023/08/01 03:42:10;;;;;;;6.97;3.78;;;17.10;99.90;;;;;;5110062;28;20053;-63
2023/08/01 03:44:35;;;;;;;5.97;3.53;;;17.10;99.90;;;;;;5092938;28;20377;-63
2023/08/01 03:47:01;;;;;;;5.57;3.72;;;17.10;99.90;;;;;;5110064;28;20028;-63
2023/08/01 03:49:27;;;;;;;7.30;3.85;;;17.10;99.90;;;;;;5092814;28;20039;-64
2023/08/01 03:51:52;;;;;;;9.25;3.90;;;17.20;99.90;;;;;;5109797;28;20100;-62
2023/08/01 03:54:18;;;;;;;8.40;4.03;;;17.20;99.90;;;;;;5112528;28;20035;-63
2023/08/01 03:56:44;;;;;;;5.35;4.10;;;17.20;99.90;;;;;;5096606;28;20035;-63
2023/08/01 03:59:16;;;;;;;8.63;3.83;;;17.20;99.90;;;;;;5112395;28;20327;-63
2023/08/01 04:01:42;;;;;;;6.13;3.92;;;17.20;99.90;;;;;;5096131;28;20028;-63
2023/08/01 04:04:09;;;;;;;6.40;3.55;;;17.10;99.90;;;;;;5112205;28;20032;-63
2023/08/01 04:06:34;;;;;;;5.35;3.83;;;17.10;99.90;;;;;;5095072;28;20020;-63
2023/08/01 04:09:00;;;;;;;8.50;4.32;;;17.10;99.90;;;;;;5112554;28;20063;-64
2023/08/01 04:11:26;;;;;;;6.28;2.83;;;17.10;99.90;;;;;;5093882;28;20023;-63
2023/08/01 04:13:52;;;;;;;6.00;3.95;;;17.10;99.90;;;;;;5112189;28;20026;-63
2023/08/01 04:16:17;;;;;;;8.85;3.72;;;17.20;99.90;;;;;;5092621;28;20036;-63
2023/08/01 04:18:43;;;;;;;5.50;3.05;;;17.20;99.90;;;;;;5112256;28;20028;-66
2023/08/01 04:21:08;;;;;;;5.03;3.40;;;17.20;99.90;;;;;;5089719;28;20531;-63
2023/08/01 04:23:34;;;;;;;6.03;3.72;;;17.10;99.90;;;;;;5112222;28;20442;-63
2023/08/01 04:25:59;;;;;;;5.03;3.50;;;17.20;99.90;;;;;;5092126;28;20043;-64
2023/08/01 04:28:25;;;;;;;6.18;3.70;;;17.20;99.90;;;;;;5110077;28;20419;-63
2023/08/01 04:30:51;;;;;;;4.95;3.40;;;17.30;99.90;;;;;;5091533;28;20293;-63
2023/08/01 04:33:17;;;;;;;5.32;3.35;;;17.30;99.90;;;;;;5089427;28;20035;-62
2023/08/01 04:35:42;;;;;;;5.40;3.42;;;17.30;99.90;;;;;;5106422;28;20027;-63
2023/08/01 04:38:08;;;;;;;5.22;2.80;;;17.40;99.90;;;;;;5089472;28;20107;-63
2023/08/01 04:40:34;;;;;;;5.18;3.20;;;17.50;99.90;;;;;;5111271;28;20027;-63
2023/08/01 04:43:01;;;;;;;5.63;3.00;;;17.60;99.90;;;;;;5090146;28;20103;-63
2023/08/01 04:45:27;;;;;;;6.30;3.53;;;17.70;99.90;;;;;;5111275;28;20023;-63
2023/08/01 04:47:52;;;;;;;7.05;3.58;;;17.80;99.90;;;;;;5090174;28;20035;-63
2023/08/01 04:50:18;;;;;;;6.88;3.45;;;17.90;99.90;;;;;;5111209;28;20482;-63
2023/08/01 04:52:43;;;;;;;5.00;3.63;;;18.00;99.90;;;;;;5090057;28;20036;-62
2023/08/01 04:55:09;;;;;;;7.97;3.60;;;18.00;99.90;;;;;;5110837;28;20390;-63
2023/08/01 04:57:34;;;;;;;3.03;2.58;;;18.10;99.90;;;;;;5090154;28;20059;-63
2023/08/01 05:00:00;;;;;;;4.55;3.40;;;18.10;99.90;;;;;;5110713;28;20504;-63
2023/08/01 05:02:25;;;;;;;5.18;3.00;;;18.10;99.90;;;;;;5089722;28;20024;-63
2023/08/01 05:04:51;;;;;;;5.15;3.40;;;18.20;99.90;;;;;;5110313;28;20122;-63
2023/08/01 05:07:17;;;;;;;4.25;2.90;;;18.20;99.90;;;;;;5100172;28;20098;-63
2023/08/01 05:09:42;;;;;;;4.78;3.38;;;18.20;99.90;;;;;;5091546;28;20024;-62
2023/08/01 05:12:09;;;;;;;5.38;3.45;;;18.20;99.90;;;;;;5108589;28;20031;-63
2023/08/01 05:14:34;;;;;;;4.97;3.17;;;18.20;99.90;;;;;;5091426;28;20032;-63
2023/08/01 05:17:00;;;;;;;4.57;3.28;;;18.30;99.90;;;;;;5108616;28;20031;-63
2023/08/01 05:19:25;;;;;;;5.13;3.03;;;18.30;99.90;;;;;;5091189;28;20028;-63
2023/08/01 05:21:51;;;;;;;4.45;3.28;;;18.30;99.90;;;;;;5108413;28;20047;-63
2023/08/01 05:24:16;;;;;;;8.68;3.28;;;18.30;99.90;;;;;;5111117;28;20386;-63
2023/08/01 05:26:42;;;;;;;4.30;2.75;;;18.40;99.90;;;;;;5094934;28;20066;-63
2023/08/01 05:29:07;;;;;;;5.13;2.85;;;18.40;99.90;;;;;;5110971;28;20076;-63
2023/08/01 05:31:33;;;;;;;4.60;3.28;;;18.40;99.90;;;;;;5093389;28;20054;-63
2023/08/01 05:33:58;;;;;;;4.60;2.90;;;18.30;99.90;;;;;;5101260;28;20024;-63
2023/08/01 05:36:24;;;;;;;3.45;2.40;;;18.30;99.90;;;;;;5091764;28;20161;-63
2023/08/01 05:38:49;;;;;;;4.90;3.10;;;18.30;99.90;;;;;;5110589;28;20035;-63
2023/08/01 05:41:15;;;;;;;4.88;2.78;;;18.40;99.90;;;;;;5091028;28;20449;-63
2023/08/01 05:43:40;;;;;;;4.72;3.10;;;18.40;99.90;;;;;;5110717;28;20024;-63
2023/08/01 05:46:06;;;;;;;5.85;2.80;;;18.30;99.90;;;;;;5089193;28;20255;-63
2023/08/01 05:48:31;;;;;;;3.17;2.58;;;18.40;99.90;;;;;;5109895;28;20425;-63
2023/08/01 05:50:58;;;;;;;3.92;2.88;;;18.40;99.90;;;;;;5090634;28;20032;-63
2023/08/01 05:53:23;;;;;;;3.83;2.70;;;18.40;99.90;;;;;;5108099;28;20114;-63
2023/08/01 05:55:49;;;;;;;3.63;2.47;;;18.40;99.90;;;;;;5090207;27;20471;-63
2023/08/01 05:58:15;;;;;;;4.18;2.40;;;18.40;99.90;;;;;;5089132;28;20445;-63
2023/08/01 06:00:41;;;;;;;4.20;2.50;;;18.40;99.90;;;;;;5109850;28;20062;-63
2023/08/01 06:03:06;;;;;;;5.35;2.42;;;18.50;99.90;;;;;;5097406;28;20019;-62
2023/08/01 06:05:32;;;;;;;4.60;2.50;;;18.50;99.90;;;;;;5090403;28;20395;-63
2023/08/01 06:07:57;;;;;;;5.45;2.85;;;18.50;99.90;;;;;;5098068;28;20043;-63
2023/08/01 06:10:23;;;;;;;5.82;2.75;;;18.50;99.90;;;;;;5109658;28;20031;-63
2023/08/01 06:12:48;;;;;;;2.90;2.50;;;18.50;99.90;;;;;;5088409;28;20081;-64
2023/08/01 06:15:14;;;;;;;4.85;2.65;;;18.50;99.90;;;;;;5108333;28;20502;-63
2023/08/01 06:17:39;;;;;;;3.58;2.72;;;18.50;99.90;;;;;;5088561;28;20412;-62
2023/08/01 06:20:05;;;;;;;3.53;2.53;;;18.60;99.90;;;;;;5089928;28;20032;-63
2023/08/01 06:22:31;;;;;;;4.25;2.88;;;18.60;99.90;;;;;;5101432;28;20021;-63
2023/08/01 06:24:57;;;;;;;4.60;2.80;;;18.60;99.90;;;;;;5088287;28;20020;-64
2023/08/01 06:27:22;;;;;;;3.80;2.40;;;18.70;99.90;;;;;;5107442;28;20039;-63
2023/08/01 06:29:48;;;;;;;3.75;2.63;;;18.70;99.90;;;;;;5105364;28;20040;-63
2023/08/01 06:32:13;;;;;;;4.85;2.83;;;18.70;99.90;;;;;;5086536;28;20023;-63
2023/08/01 06:34:39;;;;;;;6.07;2.35;;;18.70;99.90;;;;;;5098585;28;20035;-63
2023/08/01 06:37:05;;;;;;;3.00;2.60;;;18.70;99.90;;;;;;5087908;28;20079;-63
2023/08/01 06:39:31;;;;;;;2.65;2.17;;;18.70;99.90;;;;;;5089474;28;20440;-64
2023/08/01 06:41:56;;;;;;;4.07;2.65;;;18.70;99.90;;;;;;5106159;28;20042;-63
2023/08/01 06:44:22;;;;;;;3.70;3.00;;;18.70;99.90;;;;;;5089567;28;20059;-63
2023/08/01 06:46:47;;;;;;;4.45;2.28;;;18.70;99.90;;;;;;5107506;28;20090;-62
2023/08/01 06:49:13;;;;;;;2.75;2.40;;;18.70;99.90;;;;;;5087838;27;20089;-74
2023/08/01 06:51:38;;;;;;;4.28;2.40;;;18.60;99.90;;;;;;5109209;28;20027;-74
2023/08/01 06:54:04;;;;;;;4.00;2.80;;;18.60;99.90;;;;;;5088092;28;20136;-74
2023/08/01 06:56:29;;;;;;;3.33;2.10;;;18.50;99.90;;;;;;5108666;28;20533;-74
2023/08/01 06:58:55;;;;;;;3.72;2.67;;;18.50;99.90;;;;;;5088113;28;20061;-74
2023/08/01 07:01:22;;;;;;;3.42;2.42;;;18.50;99.90;;;;;;5108945;28;20107;-74
2023/08/01 07:03:47;;;;;;;4.45;2.63;;;18.50;99.90;;;;;;5087620;28;20043;-73
2023/08/01 07:06:13;;;;;;;2.47;1.98;;;18.50;99.90;;;;;;5108786;28;20467;-74
2023/08/01 07:08:39;;;;;;;2.90;2.45;;;18.60;99.90;;;;;;5086728;28;20521;-74
2023/08/01 07:11:04;;;;;;;3.33;2.38;;;18.60;99.90;;;;;;5108837;28;20683;-74
2023/08/01 07:13:30;;;;;;;4.03;2.00;;;18.60;99.90;;;;;;5087767;28;20044;-74
2023/08/01 07:15:55;;;;;;;3.38;2.05;;;18.60;99.90;;;;;;5108908;28;20046;-73
2023/08/01 07:18:21;;;;;;;4.30;2.60;;;18.70;99.90;;;;;;5088069;28;20093;-73
2023/08/01 07:20:46;;;;;;;4.38;2.85;;;18.70;99.90;;;;;;5108609;28;20043;-75
2023/08/01 07:23:12;;;;;;;5.05;2.78;;;18.70;99.90;;;;;;5087739;28;20261;-74
2023/08/01 07:25:37;;;;;;;2.70;2.10;;;18.60;99.90;;;;;;5108646;28;20059;-76
2023/08/01 07:28:03;;;;;;;3.35;2.55;;;18.70;99.90;;;;;;5087668;28;20054;-73
2023/08/01 07:30:29;;;;;;;2.42;1.95;;;18.60;99.90;;;;;;5098374;28;20032;-74
2023/08/01 07:32:54;;;;;;;3.55;2.47;;;18.70;99.90;;;;;;5097572;28;20035;-74
2023/08/01 07:35:20;;;;;;;3.08;2.30;;;18.70;99.90;;;;;;5106086;28;20754;-74
2023/08/01 07:37:45;;;;;;;4.60;2.47;;;18.70;99.90;;;;;;5087376;28;20047;-74
2023/08/01 07:40:11;;;;;;;2.83;2.20;;;18.70;99.90;;;;;;5108374;28;20101;-74
2023/08/01 07:42:36;;;;;;;2.72;2.22;;;18.80;99.90;;;;;;5087649;28;20032;-74
2023/08/01 07:45:02;;;;;;;3.13;2.30;;;18.80;99.90;;;;;;5087549;28;20119;-75
2023/08/01 07:47:27;;;;;;;4.68;2.30;;;18.80;99.90;;;;;;5099668;28;20054;-74
2023/08/01 07:49:53;;;;;;;3.00;2.33;;;18.90;99.90;;;;;;5088897;28;20021;-74
2023/08/01 07:52:18;;;;;;;2.90;2.40;;;18.90;99.90;;;;;;5102735;28;20390;-75
2023/08/01 07:54:44;;;;;;;3.67;2.22;;;19.00;99.90;;;;;;5088898;28;20028;-75
2023/08/01 07:57:09;;;;;;;5.72;2.50;;;19.10;99.90;;;;;;5103386;28;20043;-74
2023/08/01 07:59:35;;;;;;;2.70;2.30;;;19.20;99.90;;;;;;5088932;28;20028;-75
2023/08/01 08:02:00;;;;;;;2.85;2.35;;;19.20;99.90;;;;;;5104804;28;20114;-74
2023/08/01 08:04:26;;;;;;;2.85;1.98;;;19.20;99.90;;;;;;5088602;28;20032;-74
2023/08/01 08:06:52;;;;;;;4.03;2.42;;;19.30;99.90;;;;;;5106119;28;20042;-74
2023/08/01 08:09:17;;;;;;;5.03;2.50;;;19.40;99.90;;;;;;5089042;28;20020;-74
2023/08/01 08:11:43;;;;;;;3.95;2.50;;;19.40;99.90;;;;;;5109480;28;20036;-73
2023/08/01 08:14:09;;;;;;;4.45;2.70;;;19.50;99.90;;;;;;5091153;28;20035;-74
2023/08/01 08:16:34;;;;;;;2.92;2.28;;;19.50;99.90;;;;;;5112371;28;20057;-75
2023/08/01 08:19:00;;;;;;;3.20;2.53;;;19.60;99.90;;;;;;5091119;28;20790;-74
2023/08/01 08:21:25;;;;;;;2.85;2.47;;;19.80;99.90;;;;;;5112020;28;20031;-74
2023/08/01 08:23:51;;;;;;;2.65;1.83;;;19.90;99.90;;;;;;5090904;28;20603;-75
2023/08/01 08:26:16;;;;;;;3.53;2.45;;;20.00;99.90;;;;;;5112047;28;20039;-74
2023/08/01 08:28:42;;;;;;;2.97;1.88;;;20.10;99.90;;;;;;5090871;28;20380;-74
2023/08/01 08:31:08;;;;;;;2.85;2.25;;;20.20;99.90;;;;;;5111831;28;20475;-74
2023/08/01 08:33:33;;;;;;;2.05;1.85;;;20.30;99.90;;;;;;5090769;28;20023;-74
2023/08/01 08:35:59;;;;;;;2.40;2.00;;;20.40;99.90;;;;;;5107269;28;20066;-74
2023/08/01 08:38:24;;;;;;;2.40;2.20;;;20.50;99.90;;;;;;5090861;28;20063;-74
2023/08/01 08:41:26;;;;;;;3.55;2.20;;;20.50;99.90;;;;;;5111224;28;20031;-74
2023/08/01 08:43:56;;;;;;;2.47;2.10;;;20.40;99.90;;;;;;5086965;28;20107;-74
2023/08/01 08:46:27;;;;;;;3.58;1.70;;;20.50;99.90;;;;;;5112359;28;20036;-75
2023/08/01 08:48:53;;;;;;;2.25;2.03;;;20.60;99.90;;;;;;5087158;28;20028;-73
2023/08/01 08:51:21;;;;;;;2.95;1.70;;;20.80;99.90;;;;;;5111496;28;20023;-73
2023/08/01 08:53:49;;;;;;;2.70;1.85;;;21.00;99.90;;;;;;5090098;28;20380;-73
2023/08/01 08:56:15;;;;;;;3.78;1.67;;;21.10;99.90;;;;;;5111671;28;20020;-74
2023/08/01 08:58:42;;;;;;;2.13;1.60;;;21.10;99.90;;;;;;5090339;28;20392;-72
2023/08/01 09:01:08;;;;;;;1.52;1.35;;;21.30;99.50;;;;;;5111281;28;20111;-75
2023/08/01 09:03:33;;;;;;;2.42;1.65;;;21.40;99.20;;;;;;5090269;28;20566;-75
2023/08/01 09:06:14;;;;;;;2.10;1.55;;;21.50;98.10;;;;;;5110994;28;20035;-73
2023/08/01 09:08:44;;;;;;;4.43;1.58;;;21.70;97.20;;;;;;5084968;28;20050;-73
2023/08/01 09:11:09;;;;;;;1.88;1.30;;;21.90;96.50;;;;;;5111325;28;20070;-74
2023/08/01 09:13:35;;;;;;;3.72;1.63;;;21.90;95.20;;;;;;5090170;28;20464;-74
2023/08/01 09:16:02;;;;;;;2.00;1.38;;;22.00;95.50;;;;;;5110871;28;20053;-74
2023/08/01 09:18:28;;;;;;;1.58;1.27;;;22.00;95.30;;;;;;5089327;28;20261;-74
2023/08/01 09:20:53;;;;;;;1.58;1.33;;;22.00;95.90;;;;;;5109361;28;20076;-74
2023/08/01 09:23:19;;;;;;;1.45;1.35;;;22.00;95.20;;;;;;5088734;28;20024;-74
2023/08/01 09:25:45;;;;;;;3.80;1.48;;;21.90;94.70;;;;;;5110733;28;20491;-74
2023/08/01 09:28:22;;;;;;;1.00;0.90;;;22.00;94.10;;;;;;5089601;28;20480;-73
2023/08/01 09:30:55;;;;;;;2.28;1.50;;;22.10;93.90;;;;;;5110564;28;20558;-73
2023/08/01 09:33:21;;;;;;;1.27;1.17;;;22.30;93.80;;;;;;5082630;28;20043;-73
2023/08/01 09:35:46;;;;;;;1.77;1.60;;;22.40;93.80;;;;;;5108269;28;20704;-73
2023/08/01 09:38:14;;;;;;;1.92;1.48;;;22.70;93.90;;;;;;5089620;28;20032;-73
2023/08/01 09:40:40;;;;;;;2.95;1.30;;;22.80;92.40;;;;;;5110869;28;20061;-71
2023/08/01 09:43:06;;;;;;;2.03;1.42;;;23.00;91.90;;;;;;5089199;28;20067;-74
2023/08/01 09:45:32;;;;;;;1.40;1.30;;;23.00;90.30;;;;;;5110176;28;20487;-73
2023/08/01 09:47:57;;;;;;;2.80;1.58;;;23.10;90.90;;;;;;5089322;28;20024;-74
2023/08/01 09:50:24;;;;;;;3.03;1.00;;;23.20;90.70;;;;;;5110179;28;20039;-74
2023/08/01 09:52:52;;;;;;;1.42;1.30;;;23.50;90.30;;;;;;5089009;28;20059;-73
2023/08/01 09:55:39;;;;;;;1.20;1.10;;;23.50;89.40;;;;;;5109284;28;20533;-74
2023/08/01 09:58:07;;;;;;;1.80;1.02;;;23.70;86.30;;;;;;5079032;28;20036;-74
2023/08/01 10:00:32;;;;;;;1.65;1.33;;;24.00;88.50;;;;;;5110284;28;20038;-75
2023/08/01 10:03:02;;;;;;;3.45;1.02;;;24.40;87.20;;;;;;5089133;28;20466;-75
2023/08/01 10:05:30;;;;;;;0.95;0.88;;;24.70;82.00;;;;;;5110449;28;20035;-74
2023/08/01 10:07:59;;;;;;;0.63;0.63;;;24.90;79.40;;;;;;5088606;28;20054;-76
2023/08/01 10:10:25;;;;;;;1.67;0.85;;;25.00;77.70;;;;;;5110566;28;20020;-76
2023/08/01 10:12:51;;;;;;;1.77;1.02;;;25.10;77.60;;;;;;5088583;28;20408;-76
2023/08/01 10:15:17;;;;;;;0.75;0.75;;;25.10;76.00;;;;;;5110180;28;20483;-76
2023/08/01 10:17:44;;;;;;;3.72;1.00;;;24.80;74.90;;;;;;5088957;28;20032;-75
2023/08/01 10:20:11;;;;;;;2.00;0.85;;;24.50;74.50;;;;;;5089908;28;20020;-75
2023/08/01 10:22:37;;;;;;;0.95;0.85;;;24.10;75.00;;;;;;5101494;28;20036;-75
2023/08/01 10:25:04;;;;;;;0.57;0.52;;;23.80;75.00;;;;;;5090092;28;20036;-75
2023/08/01 10:27:29;;;;;;;0.70;0.60;;;23.60;77.80;;;;;;5102046;28;20056;-76
2023/08/01 10:29:59;;;;;;;0.85;0.70;;;23.40;79.00;;;;;;5094950;28;20078;-75
2023/08/01 10:32:33;;;;;;;1.02;0.70;;;23.40;77.80;;;;;;5103534;28;20530;-75
2023/08/01 10:34:59;;;;;;;0.50;0.50;;;23.40;80.00;;;;;;5099228;28;20118;-75
2023/08/01 10:37:25;;;;;;;0.82;0.50;;;23.50;79.60;;;;;;5088495;28;20099;-75
2023/08/01 10:40:00;;;;;;;1.52;0.70;;;23.70;79.30;;;;;;5089869;28;20028;-75
2023/08/01 10:42:36;;;;;;;0.30;0.30;;;23.80;77.60;;;;;;5103006;28;20024;-75
2023/08/01 10:45:02;;;;;;;0.73;0.52;;;23.80;77.70;;;;;;5089597;28;20111;-62
2023/08/01 10:47:28;;;;;;;0.50;0.50;;;23.80;77.00;;;;;;5101363;28;20716;-63
2023/08/01 10:49:53;;;;;;;1.30;0.80;;;23.80;76.30;;;;;;5089325;28;20020;-62
2023/08/01 10:52:29;;;;;;;0.60;0.40;;;24.00;75.50;;;;;;5102861;28;20028;-62
2023/08/01 10:54:59;;;;;;;0.93;0.50;;;24.00;75.10;;;;;;5089199;28;20031;-62
2023/08/01 10:57:26;;;;;;;0.77;0.57;;;24.10;74.30;;;;;;5102089;28;20069;-62
2023/08/01 10:59:54;;;;;;;0.50;0.50;;;23.90;74.60;;;;;;5089130;28;20095;-62
2023/08/01 11:02:23;;;;;;;1.52;0.52;;;23.80;73.90;;;;;;5102882;28;20019;-62
2023/08/01 11:04:59;;;;;;;0.60;0.55;;;23.70;73.90;;;;;;5088929;28;20024;-62
2023/08/01 11:07:25;;;;;;;0.52;0.43;;;23.50;72.10;;;;;;5087062;28;20024;-62
2023/08/01 11:10:07;;;;;;;0.45;0.45;;;23.50;73.70;;;;;;5088968;28;20024;-62
2023/08/01 11:12:43;;;;;;;1.77;0.75;;;23.30;72.60;;;;;;5073078;28;20034;-62
2023/08/01 11:15:11;;;;;;;1.13;0.55;;;23.20;72.70;;;;;;5088842;28;20039;-62
2023/08/01 11:17:38;;;;;;;0.60;0.50;;;23.20;73.80;;;;;;5100309;28;20165;-62
2023/08/01 11:20:11;;;;;;;0.70;0.70;;;23.30;74.00;;;;;;5089038;28;20585;-63
2023/08/01 11:22:38;;;;;;;0.40;0.40;;;23.30;72.20;;;;;;5100181;28;20162;-62
2023/08/01 11:25:04;;;;;;;0.40;0.40;;;23.20;73.80;;;;;;5088765;28;20032;-62
2023/08/01 11:27:30;;;;;;;0.52;0.52;;;23.10;74.30;;;;;;5100817;28;20028;-62
2023/08/01 11:29:56;;;;;;;0.85;0.70;;;23.00;74.90;;;;;;5093658;28;20411;-61
2023/08/01 11:32:32;;;;;;;0.77;0.50;;;22.60;78.30;;;;;;5102736;28;20054;-61
2023/08/01 11:34:58;;;;;;;0.60;0.50;;;22.20;80.90;;;;;;5098482;28;20024;-62
2023/08/01 11:37:26;;;;;;;0.60;0.60;;;21.90;82.70;;;;;;5087587;28;20365;-62
2023/08/01 11:39:52;;;;;;;0.57;0.50;;;21.60;84.80;;;;;;5088722;28;20021;-62
2023/08/01 11:42:17;;;;;;;1.40;0.75;;;21.40;86.90;;;;;;5102459;28;20488;-62
2023/08/01 11:44:46;;;;;;;0.60;0.50;;;21.30;88.80;;;;;;5088714;28;20517;-62
2023/08/01 11:47:14;;;;;;;0.75;0.65;;;21.20;89.80;;;;;;5105085;28;20024;-62
2023/08/01 11:49:44;;;;;;;1.45;0.73;;;21.20;90.80;;;;;;5092877;28;20023;-62
2023/08/01 11:52:10;;;;;;;1.88;0.57;;;21.20;91.60;;;;;;5073402;28;20519;-62
2023/08/01 11:54:45;;;;;;;2.45;0.70;;;21.20;91.50;;;;;;5092796;28;20020;-63
2023/08/01 11:57:10;;;;;;;0.70;0.65;;;21.10;92.00;;;;;;5073258;28;20492;-62
2023/08/01 11:59:47;;;;;;;0.68;0.50;;;20.90;92.60;;;;;;5092700;28;20115;-63
2023/08/01 12:02:24;;;;;;;1.85;0.50;;;20.90;93.10;;;;;;5073768;28;20027;-62
2023/08/01 12:04:50;;;;;;;0.85;0.70;;;20.90;93.40;;;;;;5090897;28;20031;-62
2023/08/01 12:07:16;;;;;;;0.95;0.63;;;20.80;93.90;;;;;;5106515;28;20016;-61
2023/08/01 12:09:42;;;;;;;1.65;0.80;;;20.80;94.00;;;;;;5092537;28;20039;-62
2023/08/01 12:12:09;;;;;;;0.90;0.68;;;20.70;94.00;;;;;;5107298;28;20070;-62
2023/08/01 12:14:39;;;;;;;1.02;0.90;;;20.70;94.40;;;;;;5091153;28;20446;-63
2023/08/01 12:17:05;;;;;;;1.77;0.90;;;20.70;94.70;;;;;;5072420;28;20017;-62
2023/08/01 12:19:33;;;;;;;0.70;0.70;;;20.70;94.80;;;;;;5092087;28;20066;-62
2023/08/01 12:21:59;;;;;;;0.93;0.80;;;20.80;94.80;;;;;;5108837;28;20072;-62
2023/08/01 12:24:24;;;;;;;1.58;0.90;;;21.00;94.30;;;;;;5090833;28;20028;-63
2023/08/01 12:26:50;;;;;;;1.27;0.70;;;21.20;94.00;;;;;;5109478;28;20039;-61
2023/08/01 12:29:15;;;;;;;1.38;1.10;;;21.40;93.60;;;;;;5091982;28;20113;-61
2023/08/01 12:31:41;;;;;;;0.75;0.75;;;21.50;93.00;;;;;;5111786;28;20046;-62
2023/08/01 12:34:06;;;;;;;1.08;0.95;;;21.60;92.60;;;;;;5094984;28;20020;-62
2023/08/01 12:36:32;;;;;;;2.15;0.82;;;21.70;92.20;;;;;;5112292;28;20503;-63
2023/08/01 12:38:57;;;;;;;1.25;1.15;;;22.00;91.80;;;;;;5090597;28;20040;-62
2023/08/01 12:41:23;;;;;;;1.13;1.02;;;22.20;90.80;;;;;;5111645;28;20054;-62
2023/08/01 12:43:48;;;;;;;2.50;1.40;;;22.40;90.20;;;;;;5090227;28;20055;-62